createdAt,value
2018-12-01T00:00:29.671Z,8.43
2018-12-01T00:02:58.997Z,8.67
2018-12-01T00:05:27.936Z,7.57
2018-12-01T00:07:57.240Z,8.23
2018-12-01T00:10:26.195Z,9.70
2018-12-01T00:12:55.111Z,8.40
2018-12-01T00:15:26.189Z,8.40
2018-12-01T00:17:55.373Z,7.87
2018-12-01T00:20:26.623Z,8.40
2018-12-01T00:22:55.537Z,7.50
2018-12-01T00:25:24.517Z,8.70
2018-12-01T00:27:53.508Z,8.57
2018-12-01T00:30:24.024Z,8.43
2018-12-01T00:32:53.567Z,7.83
2018-12-01T00:35:22.499Z,9.13
2018-12-01T00:37:51.429Z,7.77
2018-12-01T00:40:21.982Z,7.97
2018-12-01T00:42:50.895Z,7.70
2018-12-01T00:45:21.025Z,7.63
2018-12-01T00:47:51.907Z,8.80
2018-12-01T00:50:23.033Z,8.27
2018-12-01T00:52:52.899Z,8.27
2018-12-01T00:55:21.960Z,7.80
2018-12-01T00:57:50.837Z,7.13
2018-12-01T01:00:23.233Z,7.97
2018-12-01T01:02:53.941Z,8.90
2018-12-01T01:05:25.433Z,7.40
2018-12-01T01:07:55.211Z,7.13
2018-12-01T01:10:25.163Z,7.63
2018-12-01T01:12:54.104Z,8.33
2018-12-01T01:15:23.122Z,8.47
2018-12-01T01:17:52.085Z,7.00
2018-12-01T01:20:22.075Z,7.13
2018-12-01T01:22:51.354Z,7.97
2018-12-01T01:25:20.378Z,6.47
2018-12-01T01:27:49.314Z,7.57
2018-12-01T01:30:23.217Z,7.27
2018-12-01T01:32:53.264Z,7.13
2018-12-01T01:35:22.216Z,5.90
2018-12-01T01:37:51.180Z,6.93
2018-12-01T01:40:20.151Z,7.13
2018-12-01T01:42:49.082Z,7.63
2018-12-01T01:45:19.041Z,7.07
2018-12-01T01:47:48.054Z,7.10
2018-12-01T01:50:20.923Z,7.57
2018-12-01T01:52:50.184Z,7.53
2018-12-01T01:55:19.127Z,7.90
2018-12-01T01:57:48.091Z,8.00
2018-12-01T02:00:18.972Z,7.73
2018-12-01T02:02:50.976Z,7.27
2018-12-01T02:05:20.953Z,6.27
2018-12-01T02:07:50.024Z,8.37
2018-12-01T02:10:19.709Z,8.40
2018-12-01T02:12:48.631Z,8.20
2018-12-01T02:15:17.543Z,7.83
2018-12-01T02:17:46.482Z,8.40
2018-12-01T02:20:16.475Z,7.83
2018-12-01T02:22:46.045Z,8.00
2018-12-01T02:25:17.535Z,9.03
2018-12-01T02:27:46.893Z,7.70
2018-12-01T02:30:17.004Z,7.93
2018-12-01T02:32:46.088Z,7.60
2018-12-01T02:35:17.329Z,8.03
2018-12-01T02:37:46.317Z,8.27
2018-12-01T02:40:15.289Z,8.23
2018-12-01T02:42:44.789Z,8.83
2018-12-01T02:45:24.698Z,7.87
2018-12-01T02:47:53.913Z,8.17
2018-12-01T02:50:24.316Z,8.50
2018-12-01T02:52:54.273Z,7.80
2018-12-01T02:55:23.184Z,7.60
2018-12-01T02:57:52.206Z,8.20
2018-12-01T03:00:21.129Z,9.80
2018-12-01T03:02:50.049Z,8.43
2018-12-01T03:05:19.029Z,8.90
2018-12-01T03:07:47.975Z,8.97
2018-12-01T03:10:17.883Z,8.10
2018-12-01T03:12:46.803Z,7.80
2018-12-01T03:15:20.228Z,8.03
2018-12-01T03:17:50.253Z,8.10
2018-12-01T03:20:19.449Z,8.73
2018-12-01T03:22:48.341Z,8.60
2018-12-01T03:25:19.529Z,8.03
2018-12-01T03:27:49.348Z,9.17
2018-12-01T03:30:21.073Z,8.43
2018-12-01T03:32:51.749Z,9.07
2018-12-01T03:35:21.496Z,8.40
2018-12-01T03:37:50.887Z,9.03
2018-12-01T03:40:21.803Z,8.70
2018-12-01T03:42:51.716Z,8.30
2018-12-01T03:45:21.691Z,8.63
2018-12-01T03:47:50.582Z,8.90
2018-12-01T03:50:20.516Z,8.23
2018-12-01T03:52:50.683Z,9.37
2018-12-01T03:55:29.671Z,10.00
2018-12-01T03:57:58.725Z,8.63
2018-12-01T04:00:32.385Z,7.03
2018-12-01T04:03:02.138Z,8.87
2018-12-01T04:05:31.232Z,7.70
2018-12-01T04:08:00.179Z,8.77
2018-12-01T04:10:29.142Z,8.83
2018-12-01T04:12:58.105Z,8.97
2018-12-01T04:15:27.371Z,9.43
2018-12-01T04:17:56.343Z,8.83
2018-12-01T04:20:25.310Z,8.67
2018-12-01T04:22:54.242Z,9.43
2018-12-01T04:25:23.258Z,8.20
2018-12-01T04:27:52.185Z,8.33
2018-12-01T04:30:23.197Z,8.77
2018-12-01T04:32:52.143Z,9.23
2018-12-01T04:35:23.671Z,9.37
2018-12-01T04:37:56.312Z,8.83
2018-12-01T04:40:25.784Z,9.27
2018-12-01T04:42:54.698Z,10.03
2018-12-01T04:45:23.629Z,9.07
2018-12-01T04:47:52.661Z,9.13
2018-12-01T04:50:21.625Z,8.63
2018-12-01T04:52:50.578Z,9.80
2018-12-01T04:55:20.460Z,9.33
2018-12-01T04:57:49.421Z,8.70
2018-12-01T05:00:21.220Z,9.57
2018-12-01T05:02:50.184Z,9.27
2018-12-01T05:05:22.654Z,8.77
2018-12-01T05:07:51.829Z,8.57
2018-12-01T05:10:22.045Z,9.77
2018-12-01T05:12:51.079Z,9.70
2018-12-01T05:15:20.303Z,9.80
2018-12-01T05:17:49.360Z,9.30
2018-12-01T05:20:24.945Z,8.43
2018-12-01T05:22:54.213Z,9.37
2018-12-01T05:25:23.101Z,9.53
2018-12-01T05:27:52.359Z,9.37
2018-12-01T05:30:21.291Z,10.03
2018-12-01T05:32:50.203Z,8.70
2018-12-01T05:35:21.231Z,9.27
2018-12-01T05:37:50.176Z,8.23
2018-12-01T05:40:19.113Z,8.10
2018-12-01T05:42:48.088Z,9.90
2018-12-01T05:45:18.030Z,8.30
2018-12-01T05:47:46.960Z,8.40
2018-12-01T05:50:21.070Z,9.07
2018-12-01T05:52:50.218Z,9.10
2018-12-01T05:55:19.136Z,9.63
2018-12-01T05:57:48.243Z,8.87
2018-12-01T06:00:17.643Z,9.30
2018-12-01T06:02:46.568Z,6.83
2018-12-01T06:05:15.517Z,8.47
2018-12-01T06:07:44.994Z,8.93
2018-12-01T06:10:16.882Z,8.37
2018-12-01T06:12:46.196Z,8.97
2018-12-01T06:15:16.097Z,8.47
2018-12-01T06:17:45.053Z,8.17
2018-12-01T06:20:16.053Z,8.67
2018-12-01T06:22:45.029Z,8.70
2018-12-01T06:25:15.240Z,8.33
2018-12-01T06:27:44.253Z,8.33
2018-12-01T06:30:16.046Z,9.00
2018-12-01T06:32:45.542Z,9.27
2018-12-01T06:35:14.559Z,9.70
2018-12-01T06:37:43.496Z,9.80
2018-12-01T06:40:17.464Z,8.67
2018-12-01T06:42:46.420Z,9.83
2018-12-01T06:45:16.090Z,10.30
2018-12-01T06:47:45.104Z,8.83
2018-12-01T06:50:20.732Z,8.47
2018-12-01T06:52:49.962Z,9.07
2018-12-01T06:55:18.925Z,10.27
2018-12-01T06:57:48.309Z,9.77
2018-12-01T07:00:19.506Z,10.33
2018-12-01T07:02:48.976Z,11.37
2018-12-01T07:05:18.482Z,10.93
2018-12-01T07:07:47.456Z,12.13
2018-12-01T07:10:18.470Z,10.60
2018-12-01T07:12:49.001Z,10.17
2018-12-01T07:15:19.678Z,11.90
2018-12-01T07:17:48.748Z,11.13
2018-12-01T07:20:17.784Z,10.67
2018-12-01T07:22:46.762Z,10.73
2018-12-01T07:25:15.712Z,11.33
2018-12-01T07:27:44.742Z,11.60
2018-12-01T07:30:15.227Z,10.27
2018-12-01T07:32:44.969Z,11.30
2018-12-01T07:35:13.919Z,12.13
2018-12-01T07:37:42.880Z,12.37
2018-12-01T07:40:14.506Z,12.57
2018-12-01T07:42:43.470Z,11.40
2018-12-01T07:45:14.493Z,11.80
2018-12-01T07:47:43.438Z,10.63
2018-12-01T07:50:13.851Z,12.57
2018-12-01T07:52:44.225Z,11.60
2018-12-01T07:55:13.189Z,13.10
2018-12-01T07:57:42.143Z,13.20
2018-12-01T08:00:15.395Z,11.80
2018-12-01T08:02:45.652Z,11.83
2018-12-01T08:05:14.673Z,15.13
2018-12-01T08:07:43.641Z,12.77
2018-12-01T08:10:14.473Z,13.90
2018-12-01T08:12:43.615Z,15.33
2018-12-01T08:15:15.566Z,15.13
2018-12-01T08:17:44.862Z,14.97
2018-12-01T08:20:14.559Z,14.17
2018-12-01T08:22:43.613Z,15.03
2018-12-01T08:25:15.795Z,14.87
2018-12-01T08:27:45.110Z,13.73
2018-12-01T08:30:23.257Z,13.37
2018-12-01T08:32:53.873Z,15.27
2018-12-01T08:35:23.160Z,16.17
2018-12-01T08:37:52.650Z,16.63
2018-12-01T08:40:23.125Z,15.80
2018-12-01T08:42:52.103Z,15.23
2018-12-01T08:45:21.054Z,15.83
2018-12-01T08:47:50.054Z,14.70
2018-12-01T08:50:20.139Z,16.10
2018-12-01T08:52:49.105Z,19.97
2018-12-01T08:55:20.117Z,19.20
2018-12-01T08:57:49.187Z,17.20
2018-12-01T09:00:29.614Z,19.13
2018-12-01T09:03:02.219Z,20.33
2018-12-01T09:05:31.188Z,21.60
2018-12-01T09:08:00.131Z,22.17
2018-12-01T09:10:29.085Z,21.17
2018-12-01T09:13:01.606Z,21.87
2018-12-01T09:15:27.083Z,20.60
2018-12-01T09:17:55.977Z,22.00
2018-12-01T09:20:24.982Z,21.70
2018-12-01T09:22:53.912Z,20.20
2018-12-01T09:25:22.863Z,21.90
2018-12-01T09:27:51.847Z,22.20
2018-12-01T09:30:23.215Z,22.30
2018-12-01T09:32:52.193Z,23.63
2018-12-01T09:35:21.171Z,22.60
2018-12-01T09:37:50.276Z,21.23
2018-12-01T09:40:20.469Z,19.80
2018-12-01T09:42:49.422Z,23.87
2018-12-01T09:45:25.496Z,21.60
2018-12-01T09:47:55.756Z,21.83
2018-12-01T09:50:24.727Z,22.40
2018-12-01T09:52:57.588Z,21.07
2018-12-01T09:55:30.474Z,21.43
2018-12-01T09:58:00.055Z,20.03
2018-12-01T10:00:31.203Z,18.80
2018-12-01T10:03:01.241Z,19.90
2018-12-01T10:05:30.301Z,18.97
2018-12-01T10:07:59.292Z,21.33
2018-12-01T10:10:28.281Z,20.30
2018-12-01T10:12:58.052Z,20.33
2018-12-01T10:15:31.767Z,19.47
2018-12-01T10:18:00.680Z,18.87
2018-12-01T10:20:33.693Z,17.70
2018-12-01T10:23:04.239Z,19.23
2018-12-01T10:25:33.180Z,20.33
2018-12-01T10:28:02.090Z,18.47
2018-12-01T10:30:31.023Z,18.27
2018-12-01T10:33:00.017Z,18.40
2018-12-01T10:35:29.754Z,18.17
2018-12-01T10:38:02.020Z,18.67
2018-12-01T10:40:30.943Z,18.13
2018-12-01T10:42:59.878Z,19.30
2018-12-01T10:45:28.817Z,20.87
2018-12-01T10:47:57.753Z,19.20
2018-12-01T10:50:26.681Z,19.03
2018-12-01T10:52:55.994Z,20.20
2018-12-01T10:55:25.943Z,17.97
2018-12-01T10:58:28.474Z,20.30
2018-12-01T11:01:33.106Z,19.77
2018-12-01T11:04:06.579Z,18.50
2018-12-01T11:06:35.628Z,18.83
2018-12-01T11:09:05.663Z,19.47
2018-12-01T11:11:34.625Z,21.43
2018-12-01T11:14:03.677Z,23.07
2018-12-01T11:16:32.629Z,19.13
2018-12-01T11:19:01.950Z,20.10
2018-12-01T11:21:30.868Z,20.13
2018-12-01T11:23:59.927Z,19.40
2018-12-01T11:26:28.907Z,20.07
2018-12-01T11:28:57.829Z,20.77
2018-12-01T11:31:26.791Z,19.73
2018-12-01T11:33:55.767Z,20.13
2018-12-01T11:36:24.699Z,19.87
2018-12-01T11:38:53.641Z,19.80
2018-12-01T11:41:22.561Z,20.53
2018-12-01T11:43:51.464Z,21.30
2018-12-01T11:46:20.446Z,19.73
2018-12-01T11:48:49.423Z,19.90
2018-12-01T11:51:18.509Z,21.17
2018-12-01T11:53:47.566Z,22.17
2018-12-01T11:56:16.478Z,21.70
2018-12-01T11:58:45.410Z,21.80
2018-12-01T12:01:14.736Z,22.13
2018-12-01T12:03:43.706Z,22.43
2018-12-01T12:06:12.664Z,24.97
2018-12-01T12:08:41.698Z,20.27
2018-12-01T12:11:10.638Z,20.13
2018-12-01T12:13:39.534Z,22.90
2018-12-01T12:16:08.591Z,21.97
2018-12-01T12:18:37.546Z,22.77
2018-12-01T12:21:06.514Z,22.87
2018-12-01T12:23:35.480Z,21.97
2018-12-01T12:26:04.509Z,22.37
2018-12-01T12:28:33.426Z,24.67
2018-12-01T12:31:02.386Z,23.77
2018-12-01T12:33:31.429Z,22.47
2018-12-01T12:36:00.329Z,21.17
2018-12-01T12:38:29.292Z,21.13
2018-12-01T12:40:58.263Z,24.70
2018-12-01T12:43:27.217Z,23.40
2018-12-01T12:45:56.168Z,23.10
2018-12-01T12:48:25.114Z,22.60
2018-12-01T12:50:54.014Z,25.27
2018-12-01T12:53:22.924Z,20.77
2018-12-01T12:55:54.795Z,23.73
2018-12-01T12:58:23.677Z,21.63
2018-12-01T13:00:52.605Z,22.50
2018-12-01T13:03:21.717Z,23.87
2018-12-01T13:05:50.636Z,24.43
2018-12-01T13:08:20.373Z,23.87
2018-12-01T13:10:52.263Z,23.83
2018-12-01T13:13:21.359Z,23.37
2018-12-01T13:15:50.455Z,24.00
2018-12-01T13:18:19.714Z,24.50
2018-12-01T13:20:48.878Z,23.07
2018-12-01T13:23:17.995Z,24.17
2018-12-01T13:25:47.156Z,23.80
2018-12-01T13:28:19.693Z,23.17
2018-12-01T13:30:57.382Z,23.33
2018-12-01T13:33:26.953Z,25.53
2018-12-01T13:35:56.908Z,26.80
2018-12-01T13:38:26.402Z,24.83
2018-12-01T13:40:55.558Z,24.60
2018-12-01T13:43:24.689Z,25.17
2018-12-01T13:45:53.902Z,25.53
2018-12-01T13:48:23.687Z,23.47
2018-12-01T13:50:52.821Z,24.87
2018-12-01T13:53:22.055Z,28.23
2018-12-01T13:55:51.183Z,27.57
2018-12-01T13:58:20.357Z,25.97
2018-12-01T14:00:49.589Z,25.53
2018-12-01T14:03:18.707Z,24.27
2018-12-01T14:05:47.964Z,25.83
2018-12-01T14:08:17.146Z,23.93
2018-12-01T14:10:48.284Z,25.70
2018-12-01T14:13:17.481Z,24.30
2018-12-01T14:15:46.617Z,26.13
2018-12-01T14:18:15.869Z,25.27
2018-12-01T14:20:45.193Z,25.03
2018-12-01T14:23:14.296Z,25.47
2018-12-01T14:25:43.424Z,24.17
2018-12-01T14:28:13.196Z,24.67
2018-12-01T14:30:42.355Z,25.93
2018-12-01T14:33:12.531Z,24.73
2018-12-01T14:35:41.706Z,26.30
2018-12-01T14:38:14.181Z,25.53
2018-12-01T14:40:45.372Z,26.27
2018-12-01T14:43:14.537Z,24.63
2018-12-01T14:45:44.792Z,25.97
2018-12-01T14:48:14.029Z,26.43
2018-12-01T14:50:48.389Z,26.93
2018-12-01T14:53:13.370Z,26.83
2018-12-01T14:55:42.341Z,25.87
2018-12-01T14:58:11.273Z,26.77
2018-12-01T15:00:40.226Z,26.90
2018-12-01T15:03:09.504Z,25.57
2018-12-01T15:05:39.581Z,25.57
2018-12-01T15:08:08.959Z,26.27
2018-12-01T15:10:38.013Z,28.37
2018-12-01T15:13:07.232Z,27.10
2018-12-01T15:15:36.271Z,27.47
2018-12-01T15:18:05.560Z,29.13
2018-12-01T15:20:34.816Z,34.57
2018-12-01T15:23:03.911Z,37.47
2018-12-01T15:25:32.842Z,29.63
2018-12-01T15:28:01.858Z,35.90
2018-12-01T15:30:31.193Z,38.33
2018-12-01T15:33:02.509Z,31.67
2018-12-01T15:35:31.473Z,30.53
2018-12-01T15:38:00.414Z,32.97
2018-12-01T15:40:29.450Z,29.73
2018-12-01T15:42:58.499Z,31.30
2018-12-01T15:45:27.534Z,31.30
2018-12-01T15:47:56.509Z,29.33
2018-12-01T15:50:25.511Z,29.47
2018-12-01T15:52:55.984Z,28.90
2018-12-01T15:55:25.314Z,30.80
2018-12-01T15:57:54.516Z,28.53
2018-12-01T16:00:24.595Z,29.53
2018-12-01T16:02:53.652Z,33.97
2018-12-01T16:05:23.774Z,35.23
2018-12-01T16:07:54.059Z,37.13
2018-12-01T16:10:24.039Z,32.70
2018-12-01T16:12:55.624Z,34.47
2018-12-01T16:15:27.976Z,33.70
2018-12-01T16:17:57.047Z,34.37
2018-12-01T16:20:26.088Z,38.40
2018-12-01T16:22:55.153Z,36.13
2018-12-01T16:25:25.040Z,33.87
2018-12-01T16:27:54.045Z,36.33
2018-12-01T16:30:25.278Z,33.80
2018-12-01T16:32:56.417Z,33.67
2018-12-01T16:35:26.432Z,33.57
2018-12-01T16:37:55.536Z,32.60
2018-12-01T16:40:29.433Z,33.27
2018-12-01T16:43:00.093Z,32.00
2018-12-01T16:45:29.205Z,30.93
2018-12-01T16:47:58.266Z,34.20
2018-12-01T16:50:27.378Z,32.50
2018-12-01T16:52:56.556Z,33.70
2018-12-01T16:55:25.748Z,32.20
2018-12-01T16:57:54.802Z,33.80
2018-12-01T17:00:23.847Z,33.77
2018-12-01T17:02:55.249Z,33.20
2018-12-01T17:05:26.256Z,40.23
2018-12-01T17:07:55.437Z,39.43
2018-12-01T17:10:24.573Z,34.90
2018-12-01T17:12:55.119Z,37.23
2018-12-01T17:15:24.274Z,41.23
2018-12-01T17:17:53.308Z,43.57
2018-12-01T17:20:22.417Z,41.23
2018-12-01T17:22:52.889Z,39.33
2018-12-01T17:25:21.911Z,41.30
2018-12-01T17:27:51.925Z,44.43
2018-12-01T17:30:22.128Z,41.97
2018-12-01T17:32:51.631Z,41.23
2018-12-01T17:35:21.785Z,41.70
2018-12-01T17:37:53.128Z,40.53
2018-12-01T17:40:44.680Z,38.73
2018-12-01T17:43:17.872Z,36.43
2018-12-01T17:45:46.899Z,36.27
2018-12-01T17:48:15.880Z,37.90
2018-12-01T17:50:44.899Z,35.80
2018-12-01T17:53:14.039Z,36.53
2018-12-01T17:55:43.184Z,35.37
2018-12-01T17:58:12.385Z,36.37
2018-12-01T18:00:42.167Z,35.03
2018-12-01T18:03:11.180Z,35.20
2018-12-01T18:05:44.890Z,34.50
2018-12-01T18:08:15.685Z,35.50
2018-12-01T18:10:45.593Z,35.77
2018-12-01T18:13:14.588Z,34.33
2018-12-01T18:15:43.730Z,35.37
2018-12-01T18:18:12.870Z,37.00
2018-12-01T18:20:42.293Z,38.47
2018-12-01T18:23:13.317Z,37.43
2018-12-01T18:25:48.122Z,38.40
2018-12-01T18:28:24.963Z,37.63
2018-12-01T18:30:54.151Z,36.07
2018-12-01T18:33:25.953Z,40.77
2018-12-01T18:35:54.967Z,40.03
2018-12-01T18:38:23.980Z,39.30
2018-12-01T18:40:53.111Z,37.40
2018-12-01T18:43:22.107Z,38.63
2018-12-01T18:45:52.975Z,41.87
2018-12-01T18:48:21.959Z,38.97
2018-12-01T18:50:51.012Z,49.40
2018-12-01T18:53:20.047Z,46.97
2018-12-01T18:55:51.905Z,47.80
2018-12-01T18:58:21.145Z,50.57
2018-12-01T19:00:52.267Z,44.90
2018-12-01T19:03:23.006Z,42.87
2018-12-01T19:05:52.109Z,50.97
2018-12-01T19:08:21.190Z,47.87
2018-12-01T19:10:50.459Z,48.27
2018-12-01T19:13:20.720Z,45.83
2018-12-01T19:15:48.453Z,44.47
2018-12-01T19:18:17.570Z,43.47
2018-12-01T19:20:46.593Z,46.27
2018-12-01T19:23:16.968Z,41.97
2018-12-01T19:25:47.423Z,41.07
2018-12-01T19:28:16.413Z,43.33
2018-12-01T19:30:45.487Z,41.80
2018-12-01T19:33:16.734Z,42.07
2018-12-01T19:35:46.591Z,45.80
2018-12-01T19:38:18.497Z,47.47
2018-12-01T19:40:47.519Z,41.80
2018-12-01T19:43:16.480Z,41.60
2018-12-01T19:45:45.431Z,43.93
2018-12-01T19:48:14.444Z,44.90
2018-12-01T19:50:43.382Z,43.90
2018-12-01T19:53:15.322Z,43.43
2018-12-01T19:55:45.424Z,44.17
2018-12-01T19:58:18.699Z,46.37
2018-12-01T20:00:53.993Z,46.53
2018-12-01T20:03:24.091Z,46.57
2018-12-01T20:05:53.056Z,46.77
2018-12-01T20:08:22.811Z,49.40
2018-12-01T20:10:56.338Z,52.50
2018-12-01T20:13:31.869Z,49.67
2018-12-01T20:16:03.021Z,52.00
2018-12-01T20:18:31.950Z,47.97
2018-12-01T20:21:00.938Z,50.10
2018-12-01T20:23:29.970Z,46.57
2018-12-01T20:25:58.863Z,50.87
2018-12-01T20:28:27.811Z,51.03
2018-12-01T20:30:56.878Z,54.43
2018-12-01T20:33:25.841Z,49.97
2018-12-01T20:35:58.538Z,51.23
2018-12-01T20:38:32.118Z,57.30
2018-12-01T20:41:01.079Z,54.40
2018-12-01T20:43:30.035Z,54.80
2018-12-01T20:45:58.993Z,58.87
2018-12-01T20:48:28.013Z,57.03
2018-12-01T20:50:56.998Z,57.10
2018-12-01T20:53:26.854Z,53.73
2018-12-01T20:55:57.354Z,51.57
2018-12-01T20:58:28.590Z,55.83
2018-12-01T21:00:57.632Z,52.43
2018-12-01T21:03:27.287Z,51.77
2018-12-01T21:05:56.213Z,49.60
2018-12-01T21:08:27.899Z,52.23
2018-12-01T21:10:57.277Z,45.83
2018-12-01T21:13:26.250Z,50.37
2018-12-01T21:15:55.231Z,55.10
2018-12-01T21:18:24.225Z,47.23
2018-12-01T21:20:53.212Z,45.63
2018-12-01T21:23:22.148Z,54.47
2018-12-01T21:25:51.243Z,51.80
2018-12-01T21:28:20.927Z,54.90
2018-12-01T21:30:49.731Z,53.63
2018-12-01T21:33:22.928Z,53.17
2018-12-01T21:35:51.950Z,51.43
2018-12-01T21:38:20.886Z,52.47
2018-12-01T21:40:49.974Z,51.97
2018-12-01T21:43:18.927Z,53.70
2018-12-01T21:45:47.861Z,56.53
2018-12-01T21:48:16.837Z,56.47
2018-12-01T21:50:46.852Z,54.97
2018-12-01T21:53:21.625Z,56.47
2018-12-01T21:55:50.596Z,54.87
2018-12-01T21:58:19.565Z,54.27
2018-12-01T22:00:50.221Z,55.37
2018-12-01T22:03:19.801Z,52.33
2018-12-01T22:05:52.795Z,54.27
2018-12-01T22:08:21.803Z,52.27
2018-12-01T22:10:53.488Z,54.67
2018-12-01T22:13:22.587Z,53.93
2018-12-01T22:15:51.531Z,51.43
2018-12-01T22:18:20.973Z,52.53
2018-12-01T22:20:49.934Z,53.13
2018-12-01T22:23:18.890Z,52.87
2018-12-01T22:25:47.870Z,58.77
2018-12-01T22:28:16.872Z,51.17
2018-12-01T22:30:51.245Z,54.90
2018-12-01T22:33:22.128Z,55.63
2018-12-01T22:35:51.117Z,56.53
2018-12-01T22:38:20.235Z,55.03
2018-12-01T22:40:49.166Z,54.77
2018-12-01T22:43:18.159Z,58.80
2018-12-01T22:45:47.133Z,58.23
2018-12-01T22:48:20.232Z,56.00
2018-12-01T22:50:50.549Z,57.03
2018-12-01T22:53:19.519Z,59.77
2018-12-01T22:55:48.597Z,59.33
2018-12-01T22:58:18.944Z,61.97
2018-12-01T23:00:55.237Z,62.10
2018-12-01T23:03:25.348Z,59.60
2018-12-01T23:05:54.642Z,58.10
2018-12-01T23:08:25.949Z,57.53
2018-12-01T23:10:54.980Z,59.20
2018-12-01T23:13:24.293Z,60.27
2018-12-01T23:15:53.413Z,60.33
2018-12-01T23:18:24.360Z,54.37
2018-12-01T23:20:53.392Z,58.93
2018-12-01T23:23:22.432Z,57.57
2018-12-01T23:25:51.793Z,59.90
2018-12-01T23:28:20.754Z,56.03
2018-12-01T23:30:54.276Z,59.63
2018-12-01T23:33:26.877Z,58.63
2018-12-01T23:35:56.078Z,61.20
2018-12-01T23:38:25.130Z,59.07
2018-12-01T23:40:54.189Z,59.90
2018-12-01T23:43:23.199Z,57.60
2018-12-01T23:45:52.136Z,61.03
2018-12-01T23:48:21.155Z,60.63
2018-12-01T23:50:53.613Z,61.17
2018-12-01T23:53:23.333Z,59.67
2018-12-01T23:55:52.305Z,61.60
2018-12-01T23:58:21.275Z,54.87
